Latest Weather Observations for Frankston Beach

IDV60901

Issued at 12:11 am EST Thursday 3 September 2026 (issued every 10 minutes, with the page automatically refreshed every 10 minutes)

About weather observations | Map of Melbourne area stations | Latest observations for Melbourne area | Other Formats
Station Details ID: 086371 Name: FRANKSTON BEACH Lat: -38.15 Lon: 145.12 Height: 6.0 m
Data from the previous 72 hours. | See also: Recent months at Frankston Beach
Date/Time
EST
Temp
°C
App
Temp
°C
Dew
Point
°C
Rel
Hum
%
Delta-T
°C
Wind Press
QNH
hPa
Press
MSL
hPa
Rain since
9am
mm
Dir  Spd
km/h
Gust
km/h
Spd
kts
Gust
kts
03/12:00am - - - - - NNW 28 32 15 17 - - -
 
Date/Time
EST
Temp
°C
App
Temp
°C
Dew
Point
°C
Rel
Hum
%
Delta-T
°C
Wind Press
QNH
hPa
Press
MSL
hPa
Rain since
9am
mm
Dir  Spd
km/h
Gust
km/h
Spd
kts
Gust
kts
02/11:30pm - - - - - NW 28 33 15 18 - - -
02/11:00pm - - - - - NNW 26 32 14 17 - - -
02/10:30pm - - - - - NNW 22 28 12 15 - - -
02/10:00pm - - - - - NW 17 22 9 12 - - -
02/09:30pm - - - - - WNW 15 17 8 9 - - -
02/09:00pm - - - - - NW 11 13 6 7 - - -
02/08:30pm - - - - - NNW 13 13 7 7 - - -
02/08:00pm - - - - - NW 11 13 6 7 - - -
02/07:30pm - - - - - W 11 13 6 7 - - -
02/07:00pm - - - - - WSW 7 9 4 5 - - -
02/06:30pm - - - - - SW 9 13 5 7 - - -
02/06:00pm - - - - - WSW 9 11 5 6 - - -
02/05:30pm - - - - - WSW 15 17 8 9 - - -
02/05:00pm - - - - - WSW 15 17 8 9 - - -
02/04:30pm - - - - - WSW 17 19 9 10 - - -
02/04:00pm - - - - - WSW 20 26 11 14 - - -
02/03:30pm - - - - - WSW 24 28 13 15 - - -
02/03:00pm - - - - - W 22 26 12 14 - - -
02/02:30pm - - - - - W 17 19 9 10 - - -
02/02:00pm - - - - - W 20 24 11 13 - - -
02/01:30pm - - - - - W 22 26 12 14 - - -
02/01:00pm - - - - - W 24 28 13 15 - - -
02/12:30pm - - - - - W 24 28 13 15 - - -
02/12:00pm - - - - - W 24 28 13 15 - - -
02/11:30am - - - - - W 24 28 13 15 - - -
02/11:00am - - - - - W 24 28 13 15 - - -
02/10:30am - - - - - W 24 28 13 15 - - -
02/10:00am - - - - - W 24 30 13 16 - - -
02/09:30am - - - - - W 24 30 13 16 - - -
02/09:00am - - - - - W 28 32 15 17 - - -
02/08:30am - - - - - WSW 32 35 17 19 - - -
02/08:00am - - - - - W 26 32 14 17 - - -
02/07:30am - - - - - W 26 30 14 16 - - -
02/07:00am - - - - - W 30 33 16 18 - - -
02/06:30am - - - - - W 26 30 14 16 - - -
02/06:00am - - - - - W 28 33 15 18 - - -
02/05:30am - - - - - W 20 26 11 14 - - -
02/05:00am - - - - - W 17 20 9 11 - - -
02/04:30am - - - - - WSW 17 20 9 11 - - -
02/04:00am - - - - - SW 26 32 14 17 - - -
02/03:30am - - - - - SW 22 30 12 16 - - -
02/03:00am - - - - - NW 19 22 10 12 - - -
02/02:30am - - - - - NW 20 26 11 14 - - -
02/02:00am - - - - - NW 17 20 9 11 - - -
02/01:30am - - - - - NW 19 22 10 12 - - -
02/01:00am - - - - - NW 19 24 10 13 - - -
02/12:30am - - - - - WNW 19 22 10 12 - - -
02/12:00am - - - - - WNW 19 24 10 13 - - -
 
Date/Time
EST
Temp
°C
App
Temp
°C
Dew
Point
°C
Rel
Hum
%
Delta-T
°C
Wind Press
QNH
hPa
Press
MSL
hPa
Rain since
9am
mm
Dir  Spd
km/h
Gust
km/h
Spd
kts
Gust
kts
01/11:30pm - - - - - NW 22 26 12 14 - - -
01/11:00pm - - - - - NW 32 37 17 20 - - -
01/10:30pm - - - - - NNW 30 35 16 19 - - -
01/10:00pm - - - - - NNW 30 35 16 19 - - -
01/09:30pm - - - - - NW 24 30 13 16 - - -
01/09:00pm - - - - - NNW 24 30 13 16 - - -
01/08:30pm - - - - - NNW 20 28 11 15 - - -
01/08:00pm - - - - - NNW 28 37 15 20 - - -
01/07:30pm - - - - - NNW 17 22 9 12 - - -
01/07:00pm - - - - - N 22 28 12 15 - - -
01/06:30pm - - - - - N 22 28 12 15 - - -
01/06:00pm - - - - - NNW 24 28 13 15 - - -
01/05:30pm - - - - - NNW 26 32 14 17 - - -
01/05:00pm - - - - - NNW 22 28 12 15 - - -
01/04:30pm - - - - - NNW 26 32 14 17 - - -
01/04:00pm - - - - - NNW 24 32 13 17 - - -
01/03:30pm - - - - - NNW 28 33 15 18 - - -
01/03:00pm - - - - - N 26 32 14 17 - - -
01/02:30pm - - - - - N 30 35 16 19 - - -
01/02:00pm - - - - - NNW 28 35 15 19 - - -
01/01:30pm - - - - - NNW 30 37 16 20 - - -
01/01:00pm - - - - - NNW 33 44 18 24 - - -
01/12:30pm - - - - - NNW 26 35 14 19 - - -
01/12:00pm - - - - - N 30 39 16 21 - - -
01/11:30am - - - - - N 35 50 19 27 - - -
01/11:00am - - - - - N 39 54 21 29 - - -
01/10:30am - - - - - N 44 56 24 30 - - -
01/10:00am - - - - - N 39 50 21 27 - - -
01/09:30am - - - - - N 35 46 19 25 - - -
01/09:00am - - - - - N 26 37 14 20 - - -
01/08:30am - - - - - N 22 28 12 15 - - -
01/08:00am - - - - - NNW 20 28 11 15 - - -
01/07:30am - - - - - NNW 28 33 15 18 - - -
01/07:00am - - - - - NNW 19 24 10 13 - - -
01/06:30am - - - - - N 9 13 5 7 - - -
01/06:00am - - - - - N 9 13 5 7 - - -
01/05:30am - - - - - N 9 13 5 7 - - -
01/05:00am - - - - - N 15 17 8 9 - - -
01/04:30am - - - - - NNE 11 13 6 7 - - -
01/04:00am - - - - - NNE 7 11 4 6 - - -
01/03:30am - - - - - NNW 2 9 1 5 - - -
01/03:00am - - - - - NNE 9 13 5 7 - - -
01/02:30am - - - - - NNE 7 9 4 5 - - -
01/02:00am - - - - - ENE 7 9 4 5 - - -
01/01:30am - - - - - NE 7 9 4 5 - - -
01/01:00am - - - - - NNE 9 11 5 6 - - -
01/12:30am - - - - - ENE 9 11 5 6 - - -
01/12:00am - - - - - ENE 9 13 5 7 - - -
 
Date/Time
EST
Temp
°C
App
Temp
°C
Dew
Point
°C
Rel
Hum
%
Delta-T
°C
Wind Press
QNH
hPa
Press
MSL
hPa
Rain since
9am
mm
Dir  Spd
km/h
Gust
km/h
Spd
kts
Gust
kts
31/11:30pm - - - - - E 9 11 5 6 - - -
31/11:00pm - - - - - ENE 4 7 2 4 - - -
31/10:30pm - - - - - CALM 0 0 0 0 - - -
31/10:00pm - - - - - E 4 7 2 4 - - -
31/09:30pm - - - - - E 6 11 3 6 - - -
31/09:00pm - - - - - ESE 9 13 5 7 - - -
31/08:30pm - - - - - ESE 7 11 4 6 - - -
31/08:00pm - - - - - ESE 7 9 4 5 - - -
31/07:30pm - - - - - ESE 7 11 4 6 - - -
31/07:00pm - - - - - ESE 7 7 4 4 - - -
31/06:30pm - - - - - CALM 0 0 0 0 - - -
31/06:00pm - - - - - SW 2 7 1 4 - - -
31/05:30pm - - - - - WSW 11 11 6 6 - - -
31/05:00pm - - - - - SW 9 11 5 6 - - -
31/04:30pm - - - - - WSW 11 13 6 7 - - -
31/04:00pm - - - - - WSW 15 17 8 9 - - -
31/03:30pm - - - - - WSW 13 13 7 7 - - -
31/03:00pm - - - - - WSW 11 13 6 7 - - -
31/02:30pm - - - - - WSW 13 15 7 8 - - -
31/02:00pm - - - - - WSW 13 17 7 9 - - -
31/01:30pm - - - - - W 11 13 6 7 - - -
31/01:00pm - - - - - WNW 9 13 5 7 - - -
31/12:30pm - - - - - NW 9 11 5 6 - - -
31/12:00pm - - - - - WSW 7 11 4 6 - - -
31/11:30am - - - - - NW 11 13 6 7 - - -
31/11:00am - - - - - WNW 11 13 6 7 - - -
31/10:30am - - - - - W 11 13 6 7 - - -
31/10:00am - - - - - W 11 13 6 7 - - -
31/09:30am - - - - - W 15 17 8 9 - - -
31/09:00am - - - - - W 13 15 7 8 - - -
31/08:30am - - - - - W 13 15 7 8 - - -
31/08:00am - - - - - W 15 17 8 9 - - -
31/07:30am - - - - - W 15 17 8 9 - - -
31/07:00am - - - - - W 15 17 8 9 - - -
31/06:30am - - - - - WSW 13 15 7 8 - - -
31/06:00am - - - - - WSW 13 15 7 8 - - -
31/05:30am - - - - - WSW 13 15 7 8 - - -
31/05:00am - - - - - W 15 19 8 10 - - -
31/04:30am - - - - - WNW 15 17 8 9 - - -
31/04:00am - - - - - WNW 13 17 7 9 - - -
31/03:30am - - - - - CALM 0 0 0 0 - - -
31/03:00am - - - - - CALM 0 6 0 3 - - -
31/02:30am - - - - - ESE 4 7 2 4 - - -
31/02:00am - - - - - S 6 7 3 4 - - -
31/01:30am - - - - - CALM 0 0 0 0 - - -
31/01:00am - - - - - SSE 2 7 1 4 - - -
31/12:30am - - - - - CALM 0 0 0 0 - - -

Latest Capital City Observations: Canberra | Sydney | Melbourne | Brisbane | Adelaide | Perth | Hobart | Darwin

Other formats

Comma delimited format used in spreadsheet applications
http://www.bom.gov.au/fwo/IDV60901/IDV60901.94871.axf

JavaScript Object Notation format (JSON) in row-major order
http://www.bom.gov.au/fwo/IDV60901/IDV60901.94871.json

Data quality

Most of these data are generated automatically and are frequently updated. Quality checks on data are not normally performed. It is possible for incorrect values to appear. Refer to information at About Latest Weather Observations and please check the disclaimer before using these data.